AirNav   SIMCOM
 
 1527 users online  

8MD3 Sinai II Heliport
Baltimore, Maryland, USA

GOING TO BALTIMORE?


FAA INFORMATION EFFECTIVE 20 JULY 2017

Location

FAA Identifier: 8MD3
Lat/Long: 39-21-07.0600N / 076-39-42.6100W
39-21.117667N / 076-39.710167W
39.3519611 / -76.6618361
(estimated)
Elevation: 320 ft. / 98 m (estimated)
Variation: 11W (1995)
From city: 4 miles SW of BALTIMORE, MD
Time zone: UTC -4 (UTC -5 during Standard Time)
Zip code: 21209

Heliport Operations

Heliport use: Private use. Permission required prior to landing
Activation date: 06/1999
Control tower: no
ARTCC: WASHINGTON CENTER
FSS: LEESBURG FLIGHT SERVICE STATION
Attendance: UNATNDD
Wind indicator: yes
Segmented circle: no
Lights: SS-SR

Heliport Communications

WX ASOS at BWI (11 nm S): PHONE 410-691-1278
WX AWOS-3PT at MTN (12 nm E): 124.925 (410-682-8848)
WX AWOS-3 at FME (17 nm S): 123.925

Nearby radio navigation aids

VOR radial/distance  VOR name  Freq  Var
BALr011/10.9BALTIMORE VORTAC115.1011W
EMIr128/17.0WESTMINSTER VORTAC117.9008W
PPMr262/23.8PHILLIPS VOR/DME108.4009W
FDKr104/(33.3)FREDERICK VOR109.0008W
ADWr026/34.0ANDREWS VORTAC113.1010W
DCAr040/34.3WASHINGTON VOR/DME111.0009W
OTTr016/39.0NOTTINGHAM VORTAC113.7010W

 
NDB name  Hdg/Dist  Freq  Var  ID
INSTITUTE344/4.240408WIUB .. ..- -...
ELLICOTT065/6.637111WFND ..-. -. -..
ABERDEEN257/28.034910WAPG .- .--. --.
GEORGETOWN049/33.232309WGTN --. - -.
OXONN037/39.133211WDCA -.. -.-. .-

Heliport Services

Runway Information

Helipad H1

Dimensions: 40 x 38 ft. / 12 x 12 m
Surface: ROOF/TOP, in good condition
Runway edge lights: PERI
Latitude: 39-21.117667N
Longitude: 076-39.710167W
Elevation: 320.0 ft.
Traffic pattern: leftleft

Heliport Ownership and Management from official FAA records

Ownership: Privately-owned
Owner: SINAI HOSPITAL
2401 W BELVEDERE AVE
BALTIMORE, MD 21215-5271
Phone 410-601-5036
Manager: CHARLES MOORE
2401 W BELVEDERE AVE
BALTIMORE, MD 21215-5271
Phone 410-601-9842

Additional Remarks

A52-H1 1259 FT ANTENNA 500 FT S, 100 FT LDG 100 FT W, 200 SMOKE STACK 100 FT SE.

Instrument Procedures

There are no published instrument procedures at 8MD3.

Some nearby airports with instrument procedures:

KBWI - Baltimore/Washington International Thurgood Marshall Airport (11 nm S)
KMTN - Martin State Airport (12 nm E)
KFME - Tipton Airport (17 nm S)
2W2 - Clearview Airpark (18 nm NW)
KDMW - Carroll County Regional Airport/Jack B Poage Field (22 nm NW)
 
Loc | Ops | Rwys | IFR | FBO | Links
Com | Nav | Svcs | Stats | Notes


 
Area around 8MD3 (Sinai II Heliport)
 
Road maps at: MapQuest Bing Google
 
Aerial photo
No photo
 
Sectional chart

 
Airport distance calculator
Flying to Sinai II Heliport? Find the distance to fly.

From to 8MD3

Sunrise and sunset
Times for 28-Jul-2017
 Local
(UTC-4)
 Zulu
(UTC)
Morning civil twilight05:3409:34
Sunrise06:0410:04
Sunset20:2200:22
Evening civil twilight20:5300:53

Current date and time
Zulu (UTC)  28-Jul-2017 15:39:30
Local (UTC-4)  28-Jul-2017 11:39:30
 
METAR
KDMH 
5nm SE 
281454Z AUTO 27/24 A2983 RMK AO1 SLP101 T02670239 58001
KBWI 
11nm S 
281454Z 06011KT 8SM SCT008 BKN011TCU OVC060 26/23 A2982 RMK AO2 SLP097 TS DSNT SE TCU W VCSH T02560233 58001
KMTN 
12nm E 
281445Z 06005KT 7SM OVC013 26/24 A2985
KFME 
17nm S 
281509Z AUTO 09006KT 10SM BKN018 BKN023 OVC090 26/22 A2983 RMK AO1
TAF
KBWI 
11nm S 
281142Z 2812/2918 05006KT 5SM BR BKN009 BKN012 BKN080 FM281300 08004KT P6SM BKN015 OVC060 FM281500 29004KT P6SM OVC050 FM281800 12005KT 5SM SHRA VCTS OVC030CB FM282100 09006KT 3SM +SHRA OVC010 FM290600 04008KT 3SM SHRA OVC035 FM290900 03009KT 5SM -SHRA OVC035 FM291600 01013G20KT P6SM VCSH OVC030
KMTN 
12nm E 
281142Z 2812/2912 00000KT P6SM OVC005 FM281300 08004KT P6SM BKN015 OVC060 FM281600 08004KT P6SM OVC060 FM281900 12005KT 5SM SHRA VCTS OVC030CB FM282200 09006KT 3SM +SHRA OVC010 FM290700 04008KT 3SM SHRA OVC035 FM291000 03009KT 5SM -SHRA OVC035
NOTAMs
Click for the latest NOTAMs
NOTAMs are issued by the DoD/FAA and will open in a separate window not controlled by AirNav.

 

 
 

Would you like to see your business listed on this page?

 If your business provides an interesting product or service to pilots, flight crews, aircraft, or users of the Sinai II Heliport, you should consider listing it here.  To start the listing process, click on the button below
 
Add a business
 

Other Pages about Sinai II Heliport

Update a link
 
Copyright © AirNav, LLC. All rights reserved. Privacy Policy  Contact